createdAt,value
2018-11-27T00:02:29.517Z,57.33
2018-11-27T00:05:35.005Z,57.73
2018-11-27T00:08:45.058Z,56.77
2018-11-27T00:11:49.777Z,62.73
2018-11-27T00:14:54.389Z,56.13
2018-11-27T00:17:59.051Z,60.83
2018-11-27T00:21:03.632Z,62.57
2018-11-27T00:24:08.277Z,61.27
2018-11-27T00:27:12.811Z,59.57
2018-11-27T00:30:19.846Z,57.50
2018-11-27T00:33:24.479Z,58.67
2018-11-27T00:36:29.036Z,50.20
2018-11-27T00:39:33.612Z,57.50
2018-11-27T00:42:38.193Z,49.60
2018-11-27T00:45:42.734Z,47.47
2018-11-27T00:48:47.274Z,48.40
2018-11-27T00:51:51.825Z,51.90
2018-11-27T00:54:58.725Z,46.90
2018-11-27T00:58:01.010Z,49.33
2018-11-27T01:01:05.622Z,43.70
2018-11-27T01:04:10.342Z,49.17
2018-11-27T01:07:14.917Z,47.07
2018-11-27T01:10:22.407Z,47.70
2018-11-27T01:13:27.036Z,47.90
2018-11-27T01:16:31.630Z,49.07
2018-11-27T01:19:36.264Z,53.47
2018-11-27T01:22:40.809Z,49.70
2018-11-27T01:25:45.385Z,50.57
2018-11-27T01:28:50.021Z,51.07
2018-11-27T01:31:54.643Z,46.83
2018-11-27T01:34:59.304Z,45.40
2018-11-27T01:38:03.834Z,47.30
2018-11-27T01:41:08.399Z,49.27
2018-11-27T01:44:12.933Z,55.33
2018-11-27T01:47:17.513Z,54.77
2018-11-27T01:50:22.177Z,51.37
2018-11-27T01:53:26.796Z,52.00
2018-11-27T01:56:31.341Z,58.00
2018-11-27T01:59:35.896Z,54.33
2018-11-27T02:02:40.461Z,55.93
2018-11-27T02:05:45.093Z,55.97
2018-11-27T02:08:49.683Z,55.40
2018-11-27T02:11:54.319Z,54.93
2018-11-27T02:14:58.953Z,55.30
2018-11-27T02:18:03.520Z,55.27
2018-11-27T02:21:08.218Z,56.57
2018-11-27T02:24:12.777Z,53.10
2018-11-27T02:27:17.424Z,54.30
2018-11-27T02:30:22.908Z,49.57
2018-11-27T02:33:27.496Z,54.07
2018-11-27T02:36:32.094Z,53.03
2018-11-27T02:39:36.661Z,56.70
2018-11-27T02:42:41.274Z,52.63
2018-11-27T02:45:45.834Z,49.80
2018-11-27T02:48:50.677Z,57.10
2018-11-27T02:51:55.243Z,50.57
2018-11-27T02:54:59.861Z,53.23
2018-11-27T02:58:04.466Z,54.37
2018-11-27T03:01:09.016Z,52.23
2018-11-27T03:04:13.622Z,54.93
2018-11-27T03:07:18.220Z,54.63
2018-11-27T03:10:22.869Z,54.97
2018-11-27T03:13:27.426Z,57.13
2018-11-27T03:16:32.069Z,52.97
2018-11-27T03:19:37.036Z,55.33
2018-11-27T03:22:41.860Z,54.23
2018-11-27T03:25:46.768Z,58.53
2018-11-27T03:28:52.278Z,55.00
2018-11-27T03:31:57.374Z,53.57
2018-11-27T03:35:02.334Z,53.00
2018-11-27T03:38:07.606Z,52.57
2018-11-27T03:41:12.631Z,57.83
2018-11-27T03:44:17.670Z,54.97
2018-11-27T03:47:22.283Z,52.63
2018-11-27T03:50:27.965Z,53.07
2018-11-27T03:53:32.522Z,50.83
2018-11-27T03:56:37.123Z,52.40
2018-11-27T03:59:41.798Z,58.73
2018-11-27T04:02:47.713Z,60.87
2018-11-27T04:05:52.305Z,57.57
2018-11-27T04:08:56.861Z,57.23
2018-11-27T04:12:01.426Z,55.13
2018-11-27T04:15:06.507Z,55.17
2018-11-27T04:18:11.047Z,54.43
2018-11-27T04:21:15.704Z,52.50
2018-11-27T04:24:20.274Z,59.40
2018-11-27T04:27:24.857Z,55.63
2018-11-27T04:30:29.396Z,57.03
2018-11-27T04:33:34.098Z,55.33
2018-11-27T04:36:38.652Z,60.33
2018-11-27T04:39:43.312Z,60.43
2018-11-27T04:42:47.893Z,61.97
2018-11-27T04:45:52.519Z,55.90
2018-11-27T04:48:57.109Z,56.67
2018-11-27T04:52:01.680Z,55.07
2018-11-27T04:55:07.022Z,57.23
2018-11-27T04:58:11.679Z,60.80
2018-11-27T05:01:16.321Z,59.90
2018-11-27T05:04:20.913Z,60.57
2018-11-27T05:07:25.607Z,61.53
2018-11-27T05:10:30.194Z,108.57
2018-11-27T05:13:34.741Z,131.50
2018-11-27T05:16:39.399Z,108.27
2018-11-27T05:19:43.997Z,108.37
2018-11-27T05:22:48.609Z,101.93
2018-11-27T05:25:53.299Z,66.27
2018-11-27T05:28:57.826Z,67.43
2018-11-27T05:32:02.497Z,69.83
2018-11-27T05:35:08.408Z,66.20
2018-11-27T05:38:13.126Z,66.37
2018-11-27T05:41:17.769Z,65.90
2018-11-27T05:44:22.365Z,65.47
2018-11-27T05:47:26.958Z,68.70
2018-11-27T05:50:31.622Z,67.73
2018-11-27T05:53:36.274Z,74.87
2018-11-27T05:56:40.832Z,78.57
2018-11-27T05:59:45.450Z,75.47
2018-11-27T06:02:51.566Z,79.17
2018-11-27T06:05:56.116Z,91.90
2018-11-27T06:09:00.674Z,73.50
2018-11-27T06:12:05.603Z,66.27
2018-11-27T06:15:12.646Z,74.07
2018-11-27T06:18:17.237Z,75.40
2018-11-27T06:21:21.795Z,69.33
2018-11-27T06:24:26.329Z,75.87
2018-11-27T06:27:30.903Z,77.40
2018-11-27T06:30:36.035Z,79.97
2018-11-27T06:33:40.611Z,88.20
2018-11-27T06:36:45.241Z,109.27
2018-11-27T06:39:49.774Z,102.60
2018-11-27T06:42:54.392Z,105.63
2018-11-27T06:45:58.922Z,92.70
2018-11-27T06:49:03.721Z,97.70
2018-11-27T06:52:08.279Z,85.40
2018-11-27T06:55:17.792Z,83.43
2018-11-27T06:58:22.375Z,80.20
2018-11-27T07:01:26.910Z,90.83
2018-11-27T07:04:31.498Z,88.00
2018-11-27T07:07:36.214Z,87.10
2018-11-27T07:10:42.340Z,91.23
2018-11-27T07:13:46.936Z,95.77
2018-11-27T07:16:51.496Z,86.57
2018-11-27T07:19:56.076Z,89.17
2018-11-27T07:23:00.746Z,113.00
2018-11-27T07:26:05.720Z,120.37
2018-11-27T07:29:10.327Z,109.87
2018-11-27T07:32:14.964Z,113.50
2018-11-27T07:35:19.921Z,117.43
2018-11-27T07:38:24.554Z,119.77
2018-11-27T07:41:29.129Z,108.67
2018-11-27T07:44:33.728Z,108.37
2018-11-27T07:47:38.277Z,113.23
2018-11-27T07:50:42.897Z,112.97
2018-11-27T07:53:47.498Z,94.93
2018-11-27T07:56:52.044Z,93.37
2018-11-27T07:59:56.668Z,83.37
2018-11-27T08:03:01.390Z,88.03
2018-11-27T08:06:06.424Z,84.50
2018-11-27T08:09:11.290Z,86.47
2018-11-27T08:12:15.830Z,87.70
2018-11-27T08:15:28.192Z,78.93
2018-11-27T08:18:32.772Z,77.00
2018-11-27T08:21:37.332Z,71.70
2018-11-27T08:24:41.953Z,68.53
2018-11-27T08:27:46.521Z,68.80
2018-11-27T08:30:51.145Z,75.97
2018-11-27T08:33:56.548Z,76.10
2018-11-27T08:37:01.160Z,78.57
2018-11-27T08:40:07.991Z,78.03
2018-11-27T08:43:12.606Z,80.13
2018-11-27T08:46:17.156Z,78.43
2018-11-27T08:49:21.770Z,72.87
2018-11-27T08:52:26.339Z,69.60
2018-11-27T08:55:38.910Z,73.67
2018-11-27T08:58:43.655Z,74.87
2018-11-27T09:01:48.187Z,70.80
2018-11-27T09:04:52.750Z,81.73
2018-11-27T09:07:57.320Z,77.10
2018-11-27T09:11:01.870Z,76.80
2018-11-27T09:14:06.666Z,68.80
2018-11-27T09:17:11.250Z,67.43
2018-11-27T09:20:15.822Z,68.00
2018-11-27T09:23:20.349Z,69.97
2018-11-27T09:26:24.890Z,77.27
2018-11-27T09:29:29.440Z,93.93
2018-11-27T09:32:34.073Z,90.60
2018-11-27T09:35:38.683Z,79.10
2018-11-27T09:38:43.306Z,83.93
2018-11-27T09:41:47.873Z,90.17
2018-11-27T09:44:52.498Z,84.33
2018-11-27T09:47:58.077Z,84.70
2018-11-27T09:51:02.617Z,79.73
2018-11-27T09:54:07.705Z,95.63
2018-11-27T09:57:12.305Z,83.23
2018-11-27T10:00:19.765Z,80.67
2018-11-27T10:03:24.357Z,80.87
2018-11-27T10:06:28.895Z,73.70
2018-11-27T10:09:33.424Z,75.00
2018-11-27T10:12:38.170Z,69.07
2018-11-27T10:15:42.745Z,68.07
2018-11-27T10:18:47.281Z,74.53
2018-11-27T10:21:51.856Z,86.37
2018-11-27T10:24:56.398Z,78.20
2018-11-27T10:28:01.002Z,83.57
2018-11-27T10:31:05.713Z,85.73
2018-11-27T10:34:10.260Z,94.53
2018-11-27T10:37:14.840Z,98.07
2018-11-27T10:40:19.432Z,98.67
2018-11-27T10:43:24.034Z,93.97
2018-11-27T10:46:28.557Z,92.63
2018-11-27T10:49:33.115Z,86.73
2018-11-27T10:52:37.968Z,93.33
2018-11-27T10:55:42.583Z,90.27
2018-11-27T10:58:47.272Z,79.20
2018-11-27T11:01:55.139Z,75.27
2018-11-27T11:04:59.765Z,80.13
2018-11-27T11:08:04.493Z,83.23
2018-11-27T11:11:09.594Z,87.80
2018-11-27T11:14:14.263Z,70.57
2018-11-27T11:17:18.882Z,71.90
2018-11-27T11:20:26.944Z,72.80
2018-11-27T11:23:31.513Z,74.83
2018-11-27T11:26:36.087Z,68.20
2018-11-27T11:29:40.669Z,76.43
2018-11-27T11:32:45.317Z,73.80
2018-11-27T11:35:49.902Z,80.10
2018-11-27T11:38:54.483Z,80.50
2018-11-27T11:41:59.097Z,84.93
2018-11-27T11:45:03.765Z,78.87
2018-11-27T11:48:08.278Z,83.83
2018-11-27T11:51:12.950Z,100.90
2018-11-27T11:54:17.501Z,89.93
2018-11-27T11:57:22.060Z,209.07
2018-11-27T12:00:31.825Z,138.97
2018-11-27T12:03:36.394Z,109.27
2018-11-27T12:06:41.048Z,82.93
2018-11-27T12:09:45.646Z,138.07
2018-11-27T12:12:50.501Z,94.47
2018-11-27T12:15:55.051Z,88.50
2018-11-27T12:18:59.621Z,95.87
2018-11-27T12:22:04.281Z,86.20
2018-11-27T12:25:11.315Z,88.80
2018-11-27T12:28:15.920Z,85.67
2018-11-27T12:31:20.537Z,88.17
2018-11-27T12:34:25.127Z,86.57
2018-11-27T12:37:29.766Z,103.00
2018-11-27T12:40:34.357Z,111.30
2018-11-27T12:43:38.899Z,96.40
2018-11-27T12:46:43.651Z,100.70
2018-11-27T12:49:48.217Z,120.33
2018-11-27T12:52:52.833Z,114.93
2018-11-27T12:55:57.400Z,116.80
2018-11-27T12:59:01.950Z,110.57
2018-11-27T13:02:07.008Z,116.90
2018-11-27T13:05:13.998Z,119.17
2018-11-27T13:08:19.885Z,120.70
2018-11-27T13:11:24.513Z,121.77
2018-11-27T13:14:29.078Z,111.00
2018-11-27T13:17:33.727Z,110.77
2018-11-27T13:20:38.625Z,113.57
2018-11-27T13:23:43.250Z,110.30
2018-11-27T13:26:48.128Z,108.87
2018-11-27T13:29:52.458Z,114.63
2018-11-27T13:32:59.840Z,111.03
2018-11-27T13:36:04.658Z,101.17
2018-11-27T13:39:20.174Z,98.57
2018-11-27T13:42:24.793Z,98.57
2018-11-27T13:45:29.390Z,83.43
2018-11-27T13:48:34.087Z,101.77
2018-11-27T13:51:38.633Z,94.27
2018-11-27T13:54:43.231Z,83.43
2018-11-27T13:57:47.805Z,117.77
2018-11-27T14:00:52.453Z,86.53
2018-11-27T14:03:56.988Z,68.27
2018-11-27T14:07:01.819Z,87.67
2018-11-27T14:10:08.405Z,73.93
2018-11-27T14:13:13.037Z,72.43
2018-11-27T14:16:17.597Z,75.13
2018-11-27T14:19:22.156Z,76.37
2018-11-27T14:22:26.797Z,79.27
2018-11-27T14:25:31.362Z,83.33
2018-11-27T14:28:35.992Z,94.00
2018-11-27T14:31:40.554Z,80.07
2018-11-27T14:34:45.187Z,76.40
2018-11-27T14:37:51.039Z,67.53
2018-11-27T14:40:55.665Z,72.03
2018-11-27T14:44:00.189Z,81.13
2018-11-27T14:47:04.987Z,104.53
2018-11-27T14:50:11.076Z,87.23
2018-11-27T14:53:15.705Z,96.57
2018-11-27T14:56:20.263Z,124.33
2018-11-27T14:59:24.871Z,116.20
2018-11-27T15:02:29.465Z,134.90
2018-11-27T15:05:38.251Z,108.03
2018-11-27T15:08:42.809Z,99.33
2018-11-27T15:11:47.468Z,117.43
2018-11-27T15:14:52.021Z,110.13
2018-11-27T15:17:56.588Z,105.70
2018-11-27T15:21:01.180Z,109.87
2018-11-27T15:24:06.157Z,198.73
2018-11-27T15:27:10.748Z,156.70
2018-11-27T15:30:18.508Z,162.77
2018-11-27T15:33:23.128Z,137.47
2018-11-27T15:36:27.685Z,111.50
2018-11-27T15:39:32.313Z,108.57
2018-11-27T15:42:36.850Z,108.53
2018-11-27T15:45:41.434Z,89.83
2018-11-27T15:48:46.029Z,86.40
2018-11-27T15:51:51.671Z,96.70
2018-11-27T15:54:55.313Z,97.27
2018-11-27T15:58:09.014Z,103.20
2018-11-27T16:01:13.601Z,95.83
2018-11-27T16:04:18.184Z,104.43
2018-11-27T16:07:22.745Z,104.73
2018-11-27T16:10:27.402Z,107.77
2018-11-27T16:13:31.957Z,120.00
2018-11-27T16:16:36.515Z,121.73
2018-11-27T16:19:41.069Z,121.90
2018-11-27T16:22:47.520Z,117.60
2018-11-27T16:25:52.206Z,106.17
2018-11-27T16:28:56.815Z,99.83
2018-11-27T16:32:01.898Z,95.40
2018-11-27T16:35:07.407Z,105.20
2018-11-27T16:38:12.035Z,148.33
2018-11-27T16:41:16.627Z,144.37
2018-11-27T16:44:21.249Z,102.40
2018-11-27T16:47:25.874Z,95.40
2018-11-27T16:50:30.452Z,86.80
2018-11-27T16:53:35.136Z,117.43
2018-11-27T16:56:40.341Z,89.93
2018-11-27T16:59:44.996Z,96.47
2018-11-27T17:02:50.601Z,101.93
2018-11-27T17:05:55.112Z,96.80
2018-11-27T17:08:59.795Z,108.13
2018-11-27T17:12:04.392Z,102.43
2018-11-27T17:15:12.515Z,106.27
2018-11-27T17:18:17.101Z,92.63
2018-11-27T17:21:21.698Z,93.50
2018-11-27T17:24:26.317Z,112.13
2018-11-27T17:27:30.935Z,94.97
2018-11-27T17:30:42.064Z,104.27
2018-11-27T17:33:55.533Z,92.73
2018-11-27T17:37:00.086Z,89.67
2018-11-27T17:40:04.877Z,103.60
2018-11-27T17:43:09.554Z,100.50
2018-11-27T17:46:14.129Z,109.13
2018-11-27T17:49:18.701Z,107.63
2018-11-27T17:52:23.321Z,106.50
2018-11-27T17:55:27.927Z,107.63
2018-11-27T17:58:32.580Z,185.57
2018-11-27T18:01:37.317Z,118.70
2018-11-27T18:04:41.944Z,114.40
2018-11-27T18:07:46.581Z,113.73
2018-11-27T18:10:51.139Z,119.73
2018-11-27T18:13:55.836Z,110.23
2018-11-27T18:17:00.371Z,107.57
2018-11-27T18:20:05.199Z,114.70
2018-11-27T18:23:09.900Z,111.03
2018-11-27T18:26:14.465Z,124.00
2018-11-27T18:29:19.173Z,125.37
2018-11-27T18:32:23.743Z,118.77
2018-11-27T18:35:28.394Z,123.50
2018-11-27T18:38:32.945Z,130.83
2018-11-27T18:41:37.513Z,114.03
2018-11-27T18:44:42.137Z,118.23
2018-11-27T18:47:46.905Z,107.27
2018-11-27T18:50:51.484Z,105.17
2018-11-27T18:53:57.079Z,108.83
2018-11-27T18:57:01.678Z,112.53
2018-11-27T19:00:11.486Z,98.90
2018-11-27T19:03:16.085Z,104.37
2018-11-27T19:06:20.706Z,101.03
2018-11-27T19:09:25.250Z,105.23
2018-11-27T19:12:29.880Z,104.37
2018-11-27T19:15:50.002Z,112.40
2018-11-27T19:18:54.624Z,107.27
2018-11-27T19:21:59.242Z,98.80
2018-11-27T19:25:03.909Z,105.63
2018-11-27T19:28:09.169Z,111.50
2018-11-27T19:31:13.780Z,94.70
2018-11-27T19:34:18.326Z,103.33
2018-11-27T19:37:22.974Z,97.80
2018-11-27T19:40:27.538Z,91.07
2018-11-27T19:43:32.223Z,103.63
2018-11-27T19:46:36.859Z,105.13
2018-11-27T19:49:41.466Z,97.90
2018-11-27T19:52:47.283Z,106.10
2018-11-27T19:55:51.896Z,98.63
2018-11-27T19:58:56.577Z,98.03
2018-11-27T20:02:01.226Z,101.57
2018-11-27T20:05:06.567Z,109.63
2018-11-27T20:08:15.684Z,94.77
2018-11-27T20:11:20.546Z,96.33
2018-11-27T20:14:25.285Z,102.30
2018-11-27T20:17:29.860Z,98.13
2018-11-27T20:20:34.548Z,89.00
2018-11-27T20:23:39.178Z,90.93
2018-11-27T20:26:43.893Z,100.73
2018-11-27T20:29:48.538Z,96.93
2018-11-27T20:33:02.366Z,97.67
2018-11-27T20:36:07.190Z,91.40
2018-11-27T20:39:11.872Z,93.47
2018-11-27T20:42:16.449Z,105.67
2018-11-27T20:45:22.353Z,111.70
2018-11-27T20:48:26.964Z,187.80
2018-11-27T20:51:31.594Z,146.60
2018-11-27T20:54:36.213Z,122.67
2018-11-27T20:57:41.643Z,124.97
2018-11-27T21:00:47.841Z,110.83
2018-11-27T21:03:52.444Z,116.77
2018-11-27T21:06:57.067Z,144.70
2018-11-27T21:10:01.725Z,171.07
2018-11-27T21:13:07.402Z,115.33
2018-11-27T21:16:12.036Z,114.80
2018-11-27T21:19:17.022Z,97.93
2018-11-27T21:22:21.667Z,99.43
2018-11-27T21:25:26.556Z,85.37
2018-11-27T21:28:31.138Z,97.07
2018-11-27T21:31:35.796Z,81.80
2018-11-27T21:34:40.367Z,88.07
2018-11-27T21:37:45.056Z,112.90
2018-11-27T21:40:49.730Z,97.27
2018-11-27T21:43:54.356Z,100.07
2018-11-27T21:46:59.033Z,96.33
2018-11-27T21:50:03.682Z,115.67
2018-11-27T21:53:08.289Z,106.70
2018-11-27T21:56:12.889Z,104.53
2018-11-27T21:59:17.538Z,113.17
2018-11-27T22:02:22.208Z,104.10
2018-11-27T22:05:26.985Z,112.63
2018-11-27T22:08:31.611Z,100.50
2018-11-27T22:11:36.294Z,128.80
2018-11-27T22:14:40.861Z,122.80
2018-11-27T22:17:46.352Z,98.40
2018-11-27T22:20:50.909Z,94.53
2018-11-27T22:23:55.506Z,87.77
2018-11-27T22:27:00.113Z,87.57
2018-11-27T22:30:06.142Z,85.70
2018-11-27T22:33:10.823Z,79.90
2018-11-27T22:36:15.367Z,98.33
2018-11-27T22:39:19.953Z,67.47
2018-11-27T22:42:24.523Z,72.33
2018-11-27T22:45:31.925Z,60.27
2018-11-27T22:48:36.569Z,42.57
2018-11-27T22:51:41.171Z,38.50
2018-11-27T22:54:45.871Z,25.87
2018-11-27T22:57:50.445Z,33.70
2018-11-27T23:00:55.070Z,30.20
2018-11-27T23:03:59.754Z,56.87
2018-11-27T23:07:04.332Z,25.30
2018-11-27T23:10:09.210Z,23.43
2018-11-27T23:13:13.757Z,16.80
2018-11-27T23:16:18.385Z,38.00
2018-11-27T23:19:22.997Z,20.20
2018-11-27T23:22:27.564Z,13.80
2018-11-27T23:25:32.152Z,19.53
2018-11-27T23:28:36.765Z,13.67
2018-11-27T23:31:41.289Z,12.00
2018-11-27T23:34:45.808Z,19.53
2018-11-27T23:37:50.415Z,7.00
2018-11-27T23:40:55.011Z,9.07
2018-11-27T23:43:59.570Z,6.47
2018-11-27T23:47:04.155Z,7.20
2018-11-27T23:50:10.482Z,8.00
2018-11-27T23:53:15.084Z,4.87
2018-11-27T23:56:19.713Z,2.63
2018-11-27T23:59:24.313Z,11.50
